createdAt,value
2022-10-18T00:01:00.601Z,7.61
2022-10-18T00:03:28.694Z,7.63
2022-10-18T00:05:56.715Z,7.54
2022-10-18T00:08:24.716Z,7.39
2022-10-18T00:10:52.666Z,7.41
2022-10-18T00:13:21.394Z,7.32
2022-10-18T00:15:51.955Z,7.25
2022-10-18T00:18:20.441Z,7.17
2022-10-18T00:20:58.158Z,7.20
2022-10-18T00:23:26.775Z,7.14
2022-10-18T00:26:05.993Z,7.04
2022-10-18T00:28:35.034Z,7.00
2022-10-18T00:31:13.606Z,6.99
2022-10-18T00:33:41.598Z,6.90
2022-10-18T00:36:10.300Z,6.86
2022-10-18T00:38:39.289Z,6.85
2022-10-18T00:41:10.599Z,6.77
2022-10-18T00:43:56.744Z,6.62
2022-10-18T00:46:27.806Z,6.65
2022-10-18T00:48:57.554Z,6.67
2022-10-18T00:51:28.894Z,6.60
2022-10-18T00:53:56.862Z,6.61
2022-10-18T00:56:25.135Z,6.46
2022-10-18T00:58:53.225Z,6.48
2022-10-18T01:01:24.408Z,6.42
2022-10-18T01:03:58.044Z,6.35
2022-10-18T01:06:28.696Z,6.32
2022-10-18T01:09:13.630Z,6.27
2022-10-18T01:11:58.496Z,6.29
2022-10-18T01:14:38.581Z,6.28
2022-10-18T01:17:13.221Z,6.18
2022-10-18T01:20:32.210Z,6.13
2022-10-18T01:23:06.804Z,6.05
2022-10-18T01:25:43.139Z,5.99
2022-10-18T01:28:31.385Z,5.93
2022-10-18T01:31:03.072Z,5.92
2022-10-18T01:33:38.924Z,5.82
2022-10-18T01:36:15.402Z,5.80
2022-10-18T01:38:45.035Z,5.80
2022-10-18T01:41:16.066Z,5.70
2022-10-18T01:43:46.709Z,5.75
2022-10-18T01:46:21.038Z,5.80
2022-10-18T01:48:51.017Z,5.76
2022-10-18T01:51:21.036Z,5.66
2022-10-18T01:53:48.977Z,5.69
2022-10-18T01:56:26.535Z,5.62
2022-10-18T01:59:08.902Z,5.56
2022-10-18T02:01:49.256Z,5.59
2022-10-18T02:04:29.369Z,5.55
2022-10-18T02:07:05.224Z,5.54
2022-10-18T02:09:39.473Z,5.55
2022-10-18T02:12:12.385Z,5.50
2022-10-18T02:14:42.444Z,5.50
2022-10-18T02:17:13.636Z,5.42
2022-10-18T02:19:44.454Z,5.46
2022-10-18T02:22:13.987Z,5.45
2022-10-18T02:24:47.248Z,5.43
2022-10-18T02:27:15.647Z,5.39
2022-10-18T02:29:44.688Z,5.33
2022-10-18T02:32:20.773Z,5.28
2022-10-18T02:34:54.732Z,5.21
2022-10-18T02:37:22.776Z,5.23
2022-10-18T02:39:52.704Z,5.26
2022-10-18T02:42:20.644Z,5.23
2022-10-18T02:44:48.517Z,5.24
2022-10-18T02:47:17.846Z,5.27
2022-10-18T02:49:45.712Z,5.27
2022-10-18T02:52:13.583Z,5.23
2022-10-18T02:54:41.446Z,5.26
2022-10-18T02:57:09.681Z,5.21
2022-10-18T02:59:37.558Z,5.29
2022-10-18T03:02:05.850Z,5.17
2022-10-18T03:04:35.115Z,5.13
2022-10-18T03:07:03.119Z,5.15
2022-10-18T03:09:31.111Z,5.12
2022-10-18T03:11:59.011Z,5.12
2022-10-18T03:14:26.895Z,5.10
2022-10-18T03:16:54.833Z,5.11
2022-10-18T03:19:22.721Z,5.12
2022-10-18T03:21:52.012Z,5.23
2022-10-18T03:24:20.017Z,5.09
2022-10-18T03:26:47.940Z,5.16
2022-10-18T03:29:15.896Z,5.07
2022-10-18T03:31:43.822Z,5.04
2022-10-18T03:34:11.715Z,5.02
2022-10-18T03:36:41.258Z,4.99
2022-10-18T03:39:12.404Z,5.03
2022-10-18T03:41:40.273Z,4.96
2022-10-18T03:44:08.346Z,4.95
2022-10-18T03:46:36.364Z,4.88
2022-10-18T03:49:04.825Z,4.84
2022-10-18T03:51:32.809Z,4.94
2022-10-18T03:54:00.763Z,4.86
2022-10-18T03:56:30.033Z,4.81
2022-10-18T03:58:58.218Z,4.73
2022-10-18T04:01:26.148Z,4.62
2022-10-18T04:03:54.208Z,4.65
2022-10-18T04:06:22.132Z,4.62
2022-10-18T04:08:50.016Z,4.58
2022-10-18T04:11:17.877Z,4.64
2022-10-18T04:13:47.176Z,4.60
2022-10-18T04:16:15.096Z,4.61
2022-10-18T04:18:42.998Z,4.62
2022-10-18T04:21:10.888Z,4.54
2022-10-18T04:23:39.038Z,4.54
2022-10-18T04:26:07.346Z,4.64
2022-10-18T04:28:39.896Z,4.66
2022-10-18T04:31:09.807Z,4.66
2022-10-18T04:33:37.827Z,4.63
2022-10-18T04:36:06.032Z,4.66
2022-10-18T04:38:33.960Z,4.65
2022-10-18T04:41:01.851Z,4.58
2022-10-18T04:43:29.849Z,4.48
2022-10-18T04:45:57.701Z,4.54
2022-10-18T04:51:08.967Z,4.46
2022-10-18T04:53:38.786Z,4.36
2022-10-18T04:56:07.575Z,4.45
2022-10-18T04:58:35.503Z,4.37
2022-10-18T05:01:06.429Z,4.40
2022-10-18T05:03:36.022Z,4.33
2022-10-18T05:06:04.237Z,4.30
2022-10-18T05:08:33.519Z,4.27
2022-10-18T05:11:01.966Z,4.24
2022-10-18T05:13:30.938Z,4.31
2022-10-18T05:16:00.842Z,4.32
2022-10-18T05:18:29.132Z,4.29
2022-10-18T05:20:58.879Z,4.18
2022-10-18T05:23:27.001Z,4.21
2022-10-18T05:25:55.573Z,4.22
2022-10-18T05:28:41.075Z,4.15
2022-10-18T05:31:11.944Z,4.24
2022-10-18T05:33:40.050Z,4.25
2022-10-18T05:36:10.415Z,4.21
2022-10-18T05:38:42.237Z,4.28
2022-10-18T05:41:10.776Z,4.31
2022-10-18T05:43:38.674Z,4.46
2022-10-18T05:46:13.739Z,4.56
2022-10-18T05:48:43.527Z,4.54
2022-10-18T05:51:13.082Z,4.63
2022-10-18T05:53:41.130Z,4.68
2022-10-18T05:56:12.055Z,4.68
2022-10-18T05:58:40.662Z,4.75
2022-10-18T06:01:09.108Z,4.80
2022-10-18T06:03:37.692Z,4.78
2022-10-18T06:06:07.963Z,4.78
2022-10-18T06:08:38.268Z,4.94
2022-10-18T06:11:08.723Z,4.99
2022-10-18T06:13:40.637Z,5.09
2022-10-18T06:16:09.119Z,5.10
2022-10-18T06:18:37.021Z,5.20
2022-10-18T06:21:05.561Z,5.28
2022-10-18T06:23:33.830Z,5.39
2022-10-18T06:26:05.729Z,5.38
2022-10-18T06:28:36.194Z,5.55
2022-10-18T06:31:05.358Z,5.66
2022-10-18T06:33:34.537Z,5.70
2022-10-18T06:36:03.958Z,5.87
2022-10-18T06:38:32.049Z,5.92
2022-10-18T06:41:02.402Z,6.11
2022-10-18T06:43:30.310Z,6.19
2022-10-18T06:45:58.261Z,6.22
2022-10-18T06:48:26.253Z,6.34
2022-10-18T06:50:56.944Z,6.50
2022-10-18T06:53:27.622Z,6.60
2022-10-18T06:56:00.770Z,6.71
2022-10-18T06:58:31.104Z,6.82
2022-10-18T07:01:00.003Z,6.92
2022-10-18T07:03:27.921Z,6.99
2022-10-18T07:05:55.846Z,7.07
2022-10-18T07:08:23.798Z,7.17
2022-10-18T07:10:53.083Z,7.26
2022-10-18T07:13:31.951Z,7.35
2022-10-18T07:16:07.572Z,7.41
2022-10-18T07:18:36.308Z,7.44
2022-10-18T07:21:04.947Z,7.55
2022-10-18T07:23:35.194Z,7.52
2022-10-18T07:26:04.016Z,7.73
2022-10-18T07:28:32.097Z,7.75
2022-10-18T07:31:08.127Z,7.91
2022-10-18T07:33:37.939Z,7.92
2022-10-18T07:36:08.842Z,7.91
2022-10-18T07:38:37.215Z,7.98
2022-10-18T07:41:07.613Z,8.12
2022-10-18T07:43:36.290Z,8.12
2022-10-18T07:46:06.914Z,8.28
2022-10-18T07:48:34.852Z,8.44
2022-10-18T07:51:06.056Z,8.48
2022-10-18T07:53:34.637Z,8.65
2022-10-18T07:56:07.164Z,8.76
2022-10-18T07:58:37.390Z,8.86
2022-10-18T08:01:08.149Z,8.93
2022-10-18T08:03:37.456Z,9.03
2022-10-18T08:06:08.932Z,9.21
2022-10-18T08:08:38.473Z,9.32
2022-10-18T08:11:09.065Z,9.40
2022-10-18T08:13:37.267Z,9.51
2022-10-18T08:16:09.278Z,9.67
2022-10-18T08:18:37.942Z,9.78
2022-10-18T08:21:08.150Z,9.87
2022-10-18T08:23:36.390Z,9.92
2022-10-18T08:26:05.133Z,10.04
2022-10-18T08:28:36.361Z,10.08
2022-10-18T08:31:06.654Z,10.26
2022-10-18T08:33:35.905Z,10.33
2022-10-18T08:36:06.917Z,10.55
2022-10-18T08:38:35.854Z,10.65
2022-10-18T08:41:20.529Z,10.81
2022-10-18T08:43:57.439Z,10.93
2022-10-18T08:46:27.003Z,11.04
2022-10-18T08:48:57.891Z,11.21
2022-10-18T08:51:35.006Z,11.37
2022-10-18T08:54:07.655Z,11.50
2022-10-18T08:56:36.136Z,11.54
2022-10-18T08:59:04.854Z,11.52
2022-10-18T09:04:41.823Z,11.78
2022-10-18T09:07:28.662Z,11.87
2022-10-18T09:10:04.369Z,12.09
2022-10-18T09:12:52.029Z,12.29
2022-10-18T09:15:29.151Z,12.43
2022-10-18T09:18:14.545Z,12.58
2022-10-18T09:20:51.633Z,12.86
2022-10-18T09:23:23.349Z,13.14
2022-10-18T09:25:57.211Z,13.51
2022-10-18T09:28:37.798Z,14.09
2022-10-18T09:31:16.781Z,14.86
2022-10-18T09:33:54.876Z,15.35
2022-10-18T09:36:25.717Z,15.95
2022-10-18T09:38:59.869Z,16.19
2022-10-18T09:41:34.445Z,16.56
2022-10-18T09:44:07.616Z,16.84
2022-10-18T09:46:45.491Z,17.38
2022-10-18T09:49:19.429Z,17.51
2022-10-18T09:51:49.732Z,18.04
2022-10-18T09:54:26.756Z,18.13
2022-10-18T09:56:59.101Z,18.42
2022-10-18T09:59:36.653Z,18.49
2022-10-18T10:02:05.465Z,18.95
2022-10-18T10:04:35.218Z,19.43
2022-10-18T10:07:03.790Z,19.43
2022-10-18T10:09:33.039Z,18.95
2022-10-18T10:12:02.733Z,19.18
2022-10-18T10:14:31.691Z,19.62
2022-10-18T10:17:03.434Z,19.70
2022-10-18T10:19:35.957Z,20.06
2022-10-18T10:22:07.779Z,20.30
2022-10-18T10:24:43.775Z,20.60
2022-10-18T10:27:19.263Z,20.78
2022-10-18T10:30:06.974Z,21.52
2022-10-18T10:32:47.369Z,21.76
2022-10-18T10:35:41.416Z,21.14
2022-10-18T10:38:25.612Z,21.50
2022-10-18T10:40:54.536Z,21.12
2022-10-18T10:43:42.576Z,21.10
2022-10-18T10:46:13.003Z,21.55
2022-10-18T10:48:48.312Z,21.83
2022-10-18T10:51:19.596Z,21.76
2022-10-18T10:53:52.364Z,22.09
2022-10-18T10:56:28.271Z,21.78
2022-10-18T10:58:59.498Z,22.06
2022-10-18T11:01:33.151Z,22.30
2022-10-18T11:04:03.377Z,22.94
2022-10-18T11:06:50.295Z,23.16
2022-10-18T11:09:27.883Z,23.27
2022-10-18T11:12:05.009Z,23.25
2022-10-18T11:14:40.008Z,23.70
2022-10-18T11:17:16.625Z,24.18
2022-10-18T11:19:57.082Z,24.40
2022-10-18T11:22:30.251Z,24.39
2022-10-18T11:24:58.527Z,24.75
2022-10-18T11:27:32.118Z,24.66
2022-10-18T11:30:14.551Z,24.56
2022-10-18T11:32:54.512Z,25.04
2022-10-18T11:35:34.350Z,25.00
2022-10-18T11:38:17.992Z,25.03
2022-10-18T11:40:56.702Z,25.50
2022-10-18T11:43:38.921Z,25.88
2022-10-18T11:46:25.372Z,26.06
2022-10-18T11:49:12.635Z,26.18
2022-10-18T11:52:09.191Z,25.83
2022-10-18T11:55:18.872Z,26.59
2022-10-18T11:57:55.921Z,26.04
2022-10-18T12:00:39.380Z,25.70
2022-10-18T12:03:29.467Z,25.99
2022-10-18T12:06:02.319Z,26.11
2022-10-18T12:08:37.647Z,26.25
2022-10-18T12:11:15.634Z,26.38
2022-10-18T12:13:49.687Z,26.92
2022-10-18T12:16:33.556Z,26.74
2022-10-18T12:19:14.602Z,26.71
2022-10-18T12:21:44.193Z,26.19
2022-10-18T12:24:18.417Z,26.54
2022-10-18T12:26:51.150Z,26.75
2022-10-18T12:29:27.825Z,26.90
2022-10-18T12:31:59.110Z,27.31
2022-10-18T12:34:35.883Z,27.26
2022-10-18T12:37:26.515Z,27.28
2022-10-18T12:40:10.282Z,27.57
2022-10-18T12:42:46.701Z,27.28
2022-10-18T12:45:33.261Z,27.53
2022-10-18T12:48:02.609Z,27.60
2022-10-18T12:50:34.878Z,27.57
2022-10-18T12:53:08.764Z,27.43
2022-10-18T12:55:38.331Z,27.49
2022-10-18T12:58:40.574Z,27.95
2022-10-18T13:01:08.769Z,27.61
2022-10-18T13:03:43.002Z,27.64
2022-10-18T13:06:11.331Z,27.54
2022-10-18T13:08:42.969Z,27.96
2022-10-18T13:11:36.018Z,27.88
2022-10-18T13:14:59.112Z,27.52
2022-10-18T13:17:41.269Z,28.10
2022-10-18T13:20:26.140Z,28.30
2022-10-18T13:23:08.509Z,28.16
2022-10-18T13:25:49.384Z,27.75
2022-10-18T13:28:28.604Z,27.66
2022-10-18T13:31:04.108Z,27.57
2022-10-18T13:33:38.761Z,27.70
2022-10-18T13:36:23.073Z,27.72
2022-10-18T13:39:04.095Z,27.79
2022-10-18T13:41:35.529Z,27.50
2022-10-18T13:44:26.000Z,27.61
2022-10-18T13:47:36.384Z,27.83
2022-10-18T13:50:29.000Z,27.27
2022-10-18T13:53:23.282Z,27.36
2022-10-18T13:56:07.593Z,27.27
2022-10-18T13:58:49.132Z,27.25
2022-10-18T14:01:41.727Z,27.25
2022-10-18T14:04:48.869Z,27.16
2022-10-18T14:07:19.505Z,26.98
2022-10-18T14:09:52.416Z,27.03
2022-10-18T14:12:30.341Z,26.91
2022-10-18T14:15:08.640Z,26.88
2022-10-18T14:17:43.279Z,26.88
2022-10-18T14:20:27.334Z,26.87
2022-10-18T14:23:04.025Z,26.90
2022-10-18T14:25:35.591Z,26.89
2022-10-18T14:28:14.324Z,26.96
2022-10-18T14:30:53.851Z,26.72
2022-10-18T14:33:27.325Z,26.71
2022-10-18T14:36:12.941Z,26.56
2022-10-18T14:38:49.918Z,26.83
2022-10-18T14:41:21.667Z,26.56
2022-10-18T14:43:50.096Z,26.49
2022-10-18T14:46:22.238Z,26.08
2022-10-18T14:48:58.411Z,26.34
2022-10-18T14:51:31.917Z,26.02
2022-10-18T14:54:03.926Z,25.78
2022-10-18T14:56:38.293Z,25.88
2022-10-18T14:59:17.395Z,25.62
2022-10-18T15:01:57.130Z,25.45
2022-10-18T15:04:33.149Z,25.46
2022-10-18T15:07:05.936Z,25.44
2022-10-18T15:09:36.882Z,25.39
2022-10-18T15:12:08.501Z,24.97
2022-10-18T15:14:38.434Z,24.22
2022-10-18T15:17:14.673Z,23.01
2022-10-18T15:19:58.466Z,22.87
2022-10-18T15:22:33.919Z,22.45
2022-10-18T15:25:14.866Z,21.77
2022-10-18T15:27:46.514Z,21.38
2022-10-18T15:30:20.404Z,20.71
2022-10-18T15:32:52.362Z,20.45
2022-10-18T15:35:26.420Z,20.20
2022-10-18T15:37:58.566Z,19.99
2022-10-18T15:40:49.168Z,19.66
2022-10-18T15:43:40.666Z,19.08
2022-10-18T15:46:31.032Z,18.71
2022-10-18T15:49:21.593Z,18.70
2022-10-18T15:51:51.208Z,18.35
2022-10-18T15:54:30.657Z,18.19
2022-10-18T15:56:58.866Z,18.03
2022-10-18T15:59:30.848Z,17.90
2022-10-18T16:01:59.415Z,17.81
2022-10-18T16:04:29.821Z,17.67
2022-10-18T16:06:58.978Z,17.59
2022-10-18T16:09:29.675Z,17.55
2022-10-18T16:11:58.517Z,17.44
2022-10-18T16:14:27.275Z,17.35
2022-10-18T16:17:02.637Z,17.24
2022-10-18T16:19:31.427Z,17.25
2022-10-18T16:22:06.008Z,17.14
2022-10-18T16:24:36.048Z,17.01
2022-10-18T16:27:04.631Z,16.97
2022-10-18T16:29:33.231Z,16.95
2022-10-18T16:32:01.496Z,16.92
2022-10-18T16:34:29.582Z,16.74
2022-10-18T16:36:57.704Z,16.56
2022-10-18T16:39:25.739Z,16.59
2022-10-18T16:41:55.060Z,16.56
2022-10-18T16:44:22.975Z,16.43
2022-10-18T16:46:53.930Z,16.47
2022-10-18T16:49:25.904Z,16.47
2022-10-18T16:51:54.829Z,16.27
2022-10-18T16:54:23.643Z,16.22
2022-10-18T16:56:56.097Z,16.03
2022-10-18T16:59:27.348Z,15.95
2022-10-18T17:01:55.452Z,15.91
2022-10-18T17:04:25.604Z,15.87
2022-10-18T17:06:58.738Z,15.80
2022-10-18T17:09:26.803Z,15.65
2022-10-18T17:11:56.294Z,15.66
2022-10-18T17:14:24.291Z,15.59
2022-10-18T17:16:55.900Z,15.47
2022-10-18T17:19:24.396Z,15.39
2022-10-18T17:21:52.443Z,15.35
2022-10-18T17:24:20.714Z,15.33
2022-10-18T17:26:48.644Z,15.19
2022-10-18T17:29:17.924Z,15.17
2022-10-18T17:31:45.880Z,15.04
2022-10-18T17:34:21.230Z,14.99
2022-10-18T17:36:49.652Z,15.00
2022-10-18T17:39:18.171Z,14.88
2022-10-18T17:41:46.111Z,14.82
2022-10-18T17:44:14.113Z,14.71
2022-10-18T17:46:43.567Z,14.74
2022-10-18T17:49:11.492Z,14.62
2022-10-18T17:51:41.187Z,14.56
2022-10-18T17:54:09.322Z,14.49
2022-10-18T17:56:37.800Z,14.38
2022-10-18T17:59:05.926Z,14.33
2022-10-18T18:01:34.001Z,14.34
2022-10-18T18:04:04.276Z,14.35
2022-10-18T18:06:34.702Z,14.17
2022-10-18T18:09:06.925Z,14.04
2022-10-18T18:11:35.685Z,13.93
2022-10-18T18:14:08.854Z,13.90
2022-10-18T18:16:39.143Z,13.70
2022-10-18T18:19:10.128Z,13.66
2022-10-18T18:21:41.647Z,13.51
2022-10-18T18:24:10.874Z,13.52
2022-10-18T18:26:39.936Z,13.49
2022-10-18T18:29:08.468Z,13.46
2022-10-18T18:31:39.919Z,13.39
2022-10-18T18:34:11.672Z,13.29
2022-10-18T18:36:40.265Z,12.93
2022-10-18T18:39:09.146Z,12.73
2022-10-18T18:41:38.526Z,12.52
2022-10-18T18:44:07.486Z,12.45
2022-10-18T18:46:38.721Z,12.23
2022-10-18T18:49:07.950Z,12.15
2022-10-18T18:51:39.682Z,12.01
2022-10-18T18:54:08.225Z,11.93
2022-10-18T18:56:36.693Z,11.81
2022-10-18T18:59:05.838Z,11.72
2022-10-18T19:01:36.597Z,11.64
2022-10-18T19:04:07.096Z,11.50
2022-10-18T19:06:38.466Z,11.39
2022-10-18T19:09:08.129Z,11.26
2022-10-18T19:11:38.976Z,11.25
2022-10-18T19:14:08.875Z,11.06
2022-10-18T19:16:37.756Z,10.97
2022-10-18T19:19:07.941Z,11.03
2022-10-18T19:21:39.740Z,10.98
2022-10-18T19:24:09.439Z,10.96
2022-10-18T19:26:39.450Z,10.90
2022-10-18T19:29:11.146Z,10.90
2022-10-18T19:31:41.273Z,10.65
2022-10-18T19:34:11.489Z,10.65
2022-10-18T19:36:42.798Z,10.64
2022-10-18T19:39:15.589Z,10.71
2022-10-18T19:41:43.565Z,10.76
2022-10-18T19:44:15.317Z,10.78
2022-10-18T19:46:46.972Z,10.69
2022-10-18T19:49:15.633Z,10.73
2022-10-18T19:51:51.579Z,10.62
2022-10-18T19:54:19.822Z,10.52
2022-10-18T19:56:48.368Z,10.37
2022-10-18T19:59:17.836Z,10.28
2022-10-18T20:01:46.485Z,10.25
2022-10-18T20:04:15.130Z,10.11
2022-10-18T20:06:45.420Z,10.11
2022-10-18T20:09:17.847Z,10.04
2022-10-18T20:11:48.714Z,9.96
2022-10-18T20:14:22.533Z,9.95
2022-10-18T20:16:52.079Z,10.02
2022-10-18T20:19:20.416Z,10.05
2022-10-18T20:21:50.341Z,9.92
2022-10-18T20:24:18.293Z,9.78
2022-10-18T20:26:48.108Z,9.77
2022-10-18T20:29:16.145Z,9.72
2022-10-18T20:31:44.149Z,9.69
2022-10-18T20:34:13.318Z,9.65
2022-10-18T20:36:42.941Z,9.71
2022-10-18T20:39:12.329Z,9.74
2022-10-18T20:41:41.758Z,9.69
2022-10-18T20:44:14.320Z,9.77
2022-10-18T20:46:43.213Z,9.75
2022-10-18T20:49:15.902Z,9.52
2022-10-18T20:51:44.308Z,9.46
2022-10-18T20:54:14.381Z,9.29
2022-10-18T20:56:42.647Z,9.33
2022-10-18T20:59:11.571Z,9.27
2022-10-18T21:01:40.430Z,9.31
2022-10-18T21:04:11.469Z,9.25
2022-10-18T21:06:41.502Z,9.16
2022-10-18T21:09:12.296Z,9.23
2022-10-18T21:11:44.952Z,9.16
2022-10-18T21:14:15.133Z,9.06
2022-10-18T21:16:43.693Z,9.00
2022-10-18T21:19:14.358Z,8.99
2022-10-18T21:21:44.054Z,8.88
2022-10-18T21:24:12.961Z,8.78
2022-10-18T21:26:42.474Z,8.79
2022-10-18T21:29:12.520Z,8.87
2022-10-18T21:31:42.349Z,8.84
2022-10-18T21:34:14.081Z,8.79
2022-10-18T21:36:43.190Z,8.86
2022-10-18T21:39:16.296Z,8.83
2022-10-18T21:41:46.563Z,8.61
2022-10-18T21:44:15.423Z,8.62
2022-10-18T21:46:44.342Z,8.70
2022-10-18T21:49:12.554Z,8.53
2022-10-18T21:51:41.289Z,8.39
2022-10-18T21:54:12.561Z,8.17
2022-10-18T21:56:40.497Z,8.16
2022-10-18T21:59:12.221Z,8.25
2022-10-18T22:01:41.172Z,8.29
2022-10-18T22:04:19.239Z,8.22
2022-10-18T22:06:47.102Z,8.35
2022-10-18T22:09:15.339Z,8.31
2022-10-18T22:11:45.303Z,8.32
2022-10-18T22:14:14.560Z,8.32
2022-10-18T22:16:42.556Z,8.28
2022-10-18T22:19:10.426Z,8.21
2022-10-18T22:21:38.396Z,8.07
2022-10-18T22:24:08.995Z,7.87
2022-10-18T22:26:38.795Z,7.88
2022-10-18T22:29:08.401Z,7.82
2022-10-18T22:31:40.664Z,7.87
2022-10-18T22:34:11.559Z,7.92
2022-10-18T22:36:39.779Z,7.92
2022-10-18T22:39:08.259Z,7.98
2022-10-18T22:41:36.688Z,7.96
2022-10-18T22:44:05.257Z,7.79
2022-10-18T22:46:33.774Z,7.87
2022-10-18T22:49:03.081Z,7.77
2022-10-18T22:51:31.346Z,7.67
2022-10-18T22:53:59.363Z,7.72
2022-10-18T22:56:27.311Z,7.57
2022-10-18T22:58:55.215Z,7.54
2022-10-18T23:01:24.765Z,7.41
2022-10-18T23:03:55.948Z,7.42
2022-10-18T23:06:27.661Z,7.52
2022-10-18T23:08:57.676Z,7.39
2022-10-18T23:11:26.443Z,7.50
2022-10-18T23:13:54.780Z,7.58
2022-10-18T23:16:23.223Z,7.55
2022-10-18T23:18:52.201Z,7.66
2022-10-18T23:21:21.093Z,7.66
2022-10-18T23:23:50.428Z,7.71
2022-10-18T23:26:20.582Z,7.74
2022-10-18T23:28:50.537Z,7.81
2022-10-18T23:31:20.775Z,7.77
2022-10-18T23:33:50.490Z,7.74
2022-10-18T23:36:18.967Z,7.76
2022-10-18T23:38:46.952Z,7.85
2022-10-18T23:41:17.621Z,7.69
2022-10-18T23:43:46.217Z,7.63
2022-10-18T23:46:14.996Z,7.53
2022-10-18T23:48:42.901Z,7.50
2022-10-18T23:51:11.542Z,7.50
2022-10-18T23:53:40.209Z,7.47
2022-10-18T23:56:10.494Z,7.46
2022-10-18T23:58:41.115Z,7.27
